Bowser, Canada
Current Conditions -  °F | °C
As of 5:00 AM on Tuesday 21 Oct 2014 (Local Time) from CYQQ Reporting Station
Overcast Overcast  
Wind Chill: 52°   Ceiling: 8000
Heat Index: 52°   Visibility: 20mi
Dew Point: 52°   Wind: 13mph
Humidity: 100%   Direction: 170°S
Pressure: 29.71"   Gusts: NA
Location:  49.43°N, 124.68°W
Report Text: CYQQ 211200Z 17011KT 20SM FEW006 SCT055 OVC080 11/11 A2971 RMK SF2SC2AC4 SLP062
Loading
Personal Weather Stations






























Interactive Weather Map
Tropical Storm Tracking
New forecast layout! Learn more

10-Day Weather Forecast

Advertisements
Track Severe Weather on mobile